Time;durP1;ratioP1;P1;durP2;ratioP2;P2;SDS_P1;SDS_P2;PMS_P1;PMS_P2;Temp;Humidity;BMP_temperature;BMP_pressure;BME280_temperature;BME280_humidity;BME280_pressure;Samples;Min_cycle;Max_cycle;Signal;HPM_P1;HPM_P2
2021/12/23 00:01:47;;;;;;;19.20;12.93;;;-1.40;99.90;;;;;;5034957;28;20052;-69
2021/12/23 00:04:14;;;;;;;23.38;14.15;;;-1.30;99.90;;;;;;5035916;28;20041;-70
2021/12/23 00:06:41;;;;;;;18.10;11.80;;;-1.30;99.90;;;;;;5035944;28;20095;-69
2021/12/23 00:09:06;;;;;;;19.10;13.05;;;-1.40;99.90;;;;;;5036342;28;20393;-69
2021/12/23 00:11:32;;;;;;;16.67;12.07;;;-1.30;99.90;;;;;;5035972;28;20053;-69
2021/12/23 00:14:04;;;;;;;19.38;13.52;;;-1.30;99.90;;;;;;5036314;28;20095;-71
2021/12/23 00:16:55;;;;;;;19.48;13.55;;;-1.30;99.90;;;;;;5034133;28;20136;-70
2021/12/23 00:24:40;;;;;;;19.88;13.85;;;-1.30;99.90;;;;;;5052787;28;20163;-69
2021/12/23 00:27:06;;;;;;;20.40;13.60;;;-1.30;99.90;;;;;;5034793;28;20175;-69
2021/12/23 00:29:32;;;;;;;20.27;14.32;;;-1.20;99.90;;;;;;5035172;28;20060;-69
2021/12/23 00:31:58;;;;;;;19.35;13.77;;;-1.20;99.90;;;;;;5033602;28;20417;-69
2021/12/23 00:34:24;;;;;;;21.70;13.60;;;-1.20;99.90;;;;;;5025826;28;20041;-72
2021/12/23 00:36:51;;;;;;;21.40;13.35;;;-1.20;99.90;;;;;;5035201;28;20442;-70
2021/12/23 00:39:17;;;;;;;23.35;13.77;;;-1.20;99.90;;;;;;5035043;28;20055;-70
2021/12/23 00:41:44;;;;;;;17.67;12.43;;;-1.10;99.90;;;;;;5035331;28;20053;-69
2021/12/23 00:44:11;;;;;;;18.05;12.88;;;-1.20;99.90;;;;;;5035726;28;20115;-70
2021/12/23 00:46:37;;;;;;;22.60;14.18;;;-1.10;99.90;;;;;;5017617;28;20048;-69
2021/12/23 00:49:05;;;;;;;21.73;13.43;;;-1.10;99.90;;;;;;5035113;28;20052;-68
2021/12/23 00:51:31;;;;;;;18.95;12.73;;;-1.10;99.90;;;;;;5034603;28;20132;-70
2021/12/23 00:54:04;;;;;;;21.10;14.55;;;-1.10;99.90;;;;;;5034770;28;20136;-70
2021/12/23 00:56:36;;;;;;;19.75;13.15;;;-1.00;99.90;;;;;;5035420;28;20396;-69
2021/12/23 00:59:09;;;;;;;20.75;13.23;;;-1.00;99.90;;;;;;5035382;28;20053;-70
2021/12/23 01:01:35;;;;;;;17.73;12.35;;;-1.00;99.90;;;;;;5033546;28;20115;-70
2021/12/23 01:04:01;;;;;;;21.55;14.20;;;-1.00;99.90;;;;;;5034133;28;20216;-69
2021/12/23 01:06:27;;;;;;;20.30;13.00;;;-1.00;99.90;;;;;;5034374;28;20135;-70
2021/12/23 01:08:52;;;;;;;23.85;13.35;;;-1.00;99.90;;;;;;5035432;28;20053;-71
2021/12/23 01:11:18;;;;;;;19.55;13.40;;;-1.00;99.90;;;;;;5035215;28;20057;-70
2021/12/23 01:13:59;;;;;;;19.20;13.70;;;-0.90;99.90;;;;;;5035330;28;20557;-70
2021/12/23 01:16:36;;;;;;;21.05;13.35;;;-0.90;99.90;;;;;;5033379;28;20045;-69
2021/12/23 01:19:10;;;;;;;19.35;13.00;;;-0.90;99.90;;;;;;5034568;28;20041;-69
2021/12/23 01:21:35;;;;;;;17.35;12.27;;;-0.90;99.90;;;;;;5018206;28;20496;-69
2021/12/23 01:24:01;;;;;;;20.23;14.00;;;-0.90;99.90;;;;;;5034226;28;20061;-69
2021/12/23 01:26:26;;;;;;;21.00;14.43;;;-0.90;99.90;;;;;;5035818;28;20048;-68
2021/12/23 01:28:56;;;;;;;18.92;13.18;;;-0.90;99.90;;;;;;5038267;28;20110;-69
2021/12/23 01:31:24;;;;;;;20.88;13.65;;;-0.90;99.90;;;;;;5037421;28;20057;-69
2021/12/23 01:33:49;;;;;;;18.90;13.65;;;-0.90;99.90;;;;;;5038732;28;20060;-69
2021/12/23 01:36:15;;;;;;;21.63;14.52;;;-0.80;99.90;;;;;;5038270;28;20401;-70
2021/12/23 01:38:41;;;;;;;20.73;14.13;;;-0.80;99.90;;;;;;5038417;28;20080;-71
2021/12/23 01:41:07;;;;;;;19.55;12.98;;;-0.80;99.90;;;;;;5038585;28;20374;-71
2021/12/23 01:43:33;;;;;;;21.27;13.93;;;-0.80;99.90;;;;;;5021936;28;20052;-70
2021/12/23 01:45:58;;;;;;;21.35;14.23;;;-0.80;99.90;;;;;;5037702;28;20071;-70
2021/12/23 01:48:25;;;;;;;21.20;13.80;;;-0.80;99.90;;;;;;5032644;28;20041;-69
2021/12/23 01:50:50;;;;;;;22.17;15.20;;;-0.80;99.90;;;;;;5018730;28;20049;-69
2021/12/23 01:53:16;;;;;;;23.05;15.07;;;-0.80;99.90;;;;;;5031196;28;20056;-70
2021/12/23 01:55:43;;;;;;;22.08;13.45;;;-0.80;99.90;;;;;;5038542;28;20136;-69
2021/12/23 01:58:10;;;;;;;20.45;14.20;;;-0.80;99.90;;;;;;5038328;28;20088;-73
2021/12/23 02:00:38;;;;;;;22.70;14.70;;;-0.80;99.90;;;;;;5037534;28;20450;-71
2021/12/23 02:03:04;;;;;;;22.92;14.10;;;-0.70;99.90;;;;;;5022676;28;20045;-69
2021/12/23 02:05:30;;;;;;;22.25;14.00;;;-0.70;99.90;;;;;;5021965;28;20065;-71
2021/12/23 02:07:57;;;;;;;21.77;14.23;;;-0.80;99.90;;;;;;5038381;28;20091;-71
2021/12/23 02:10:23;;;;;;;20.85;13.57;;;-0.80;99.90;;;;;;5021588;28;20041;-70
2021/12/23 02:12:50;;;;;;;21.63;13.75;;;-0.80;99.90;;;;;;5021630;28;20048;-69
2021/12/23 02:15:17;;;;;;;21.98;14.70;;;-0.80;99.90;;;;;;5037591;28;20436;-70
2021/12/23 02:17:43;;;;;;;21.60;14.63;;;-0.70;99.90;;;;;;5052771;28;20049;-70
2021/12/23 02:20:11;;;;;;;22.48;13.88;;;-0.80;99.90;;;;;;5038306;28;20041;-70
2021/12/23 02:22:37;;;;;;;22.25;15.27;;;-0.70;99.90;;;;;;5037838;28;20087;-70
2021/12/23 02:25:05;;;;;;;21.25;14.57;;;-0.70;99.90;;;;;;5037671;28;20130;-68
2021/12/23 02:27:31;;;;;;;21.73;14.35;;;-0.80;99.90;;;;;;5054026;28;20056;-70
2021/12/23 02:29:57;;;;;;;21.45;14.18;;;-0.70;99.90;;;;;;5028670;28;20057;-69
2021/12/23 02:32:22;;;;;;;28.73;15.98;;;-0.70;99.90;;;;;;5023068;28;20051;-73
2021/12/23 02:34:48;;;;;;;20.30;14.02;;;-0.70;99.90;;;;;;5037911;28;20606;-71
2021/12/23 02:37:14;;;;;;;25.95;16.17;;;-0.70;99.90;;;;;;5037036;28;20053;-68
2021/12/23 02:39:40;;;;;;;19.75;14.23;;;-0.70;99.90;;;;;;5037361;28;20415;-71
2021/12/23 02:42:07;;;;;;;20.75;14.48;;;-0.70;99.90;;;;;;5037254;28;20045;-72
2021/12/23 02:44:33;;;;;;;20.58;14.10;;;-0.70;99.90;;;;;;5036026;28;20140;-69
2021/12/23 02:46:59;;;;;;;23.05;14.00;;;-0.70;99.90;;;;;;5036432;28;20135;-70
2021/12/23 02:49:24;;;;;;;23.48;14.75;;;-0.70;99.90;;;;;;5037202;28;20041;-69
2021/12/23 02:51:50;;;;;;;21.52;14.77;;;-0.70;99.90;;;;;;5037373;28;20158;-69
2021/12/23 02:54:16;;;;;;;21.10;14.43;;;-0.70;99.90;;;;;;5036768;28;20428;-67
2021/12/23 02:56:41;;;;;;;21.83;14.48;;;-0.70;99.90;;;;;;5037531;28;20053;-69
2021/12/23 02:59:07;;;;;;;22.92;14.60;;;-0.70;99.90;;;;;;5031025;28;20057;-70
2021/12/23 03:01:32;;;;;;;22.30;13.75;;;-0.70;99.90;;;;;;5028296;28;20108;-70
2021/12/23 03:03:59;;;;;;;23.13;14.75;;;-0.70;99.90;;;;;;5036825;28;20053;-71
2021/12/23 03:06:25;;;;;;;27.77;15.45;;;-0.70;99.90;;;;;;5036928;28;20056;-68
2021/12/23 03:08:53;;;;;;;21.98;14.80;;;-0.70;99.90;;;;;;5054862;28;20061;-69
2021/12/23 03:11:22;;;;;;;23.63;14.70;;;-0.70;99.90;;;;;;5036173;28;20099;-70
2021/12/23 03:13:48;;;;;;;25.10;14.68;;;-0.70;99.90;;;;;;5036994;28;20095;-70
2021/12/23 03:16:18;;;;;;;21.85;14.23;;;-0.70;99.90;;;;;;5035560;28;20139;-70
2021/12/23 03:18:44;;;;;;;20.80;13.57;;;-0.70;99.90;;;;;;5025873;28;20448;-68
2021/12/23 03:21:09;;;;;;;23.05;14.77;;;-0.70;99.90;;;;;;5023711;28;20049;-69
2021/12/23 03:23:35;;;;;;;22.77;14.73;;;-0.70;99.90;;;;;;5036763;28;20412;-68
2021/12/23 03:26:02;;;;;;;23.13;14.50;;;-0.70;99.90;;;;;;5035942;28;20045;-69
2021/12/23 03:28:28;;;;;;;25.15;14.50;;;-0.70;99.90;;;;;;5036292;28;20496;-69
2021/12/23 03:30:54;;;;;;;24.75;15.07;;;-0.70;99.90;;;;;;5030556;28;20061;-70
2021/12/23 03:33:19;;;;;;;19.92;13.77;;;-0.70;99.90;;;;;;5036332;28;20037;-69
2021/12/23 03:35:46;;;;;;;23.70;15.45;;;-0.70;99.90;;;;;;5036608;28;20056;-69
2021/12/23 03:38:13;;;;;;;22.42;15.25;;;-0.70;99.90;;;;;;5037044;28;20118;-68
2021/12/23 03:40:39;;;;;;;22.42;14.18;;;-0.70;99.90;;;;;;5036124;28;20053;-70
2021/12/23 03:43:04;;;;;;;22.92;14.68;;;-0.70;99.90;;;;;;5036363;28;20061;-70
2021/12/23 03:45:31;;;;;;;22.25;14.25;;;-0.70;99.90;;;;;;5035902;28;20056;-72
2021/12/23 03:47:56;;;;;;;23.23;14.02;;;-0.70;99.90;;;;;;5052666;28;20055;-69
2021/12/23 03:50:24;;;;;;;24.05;14.57;;;-0.70;99.90;;;;;;5036270;28;20049;-69
2021/12/23 03:52:53;;;;;;;25.13;15.20;;;-0.60;99.90;;;;;;5035972;28;20053;-68
2021/12/23 03:55:18;;;;;;;23.77;14.98;;;-0.60;99.90;;;;;;5036072;28;20512;-68
2021/12/23 03:57:46;;;;;;;19.83;14.57;;;-0.60;99.90;;;;;;5035612;28;20049;-68
2021/12/23 04:00:14;;;;;;;21.65;14.45;;;-0.60;99.90;;;;;;5035554;28;20480;-70
2021/12/23 04:02:39;;;;;;;23.27;14.35;;;-0.60;99.90;;;;;;5035021;28;20163;-69
2021/12/23 04:05:06;;;;;;;28.65;14.25;;;-0.50;99.90;;;;;;5035599;28;20124;-69
2021/12/23 04:07:33;;;;;;;21.45;13.45;;;-0.60;99.90;;;;;;5018083;28;20124;-71
2021/12/23 04:09:59;;;;;;;23.42;14.65;;;-0.50;99.90;;;;;;5019917;28;20128;-68
2021/12/23 04:12:24;;;;;;;24.02;14.38;;;-0.50;99.90;;;;;;5035515;28;20457;-69
2021/12/23 04:14:50;;;;;;;24.83;14.25;;;-0.50;99.90;;;;;;5035792;28;20045;-70
2021/12/23 04:17:15;;;;;;;22.10;13.88;;;-0.50;99.90;;;;;;5053121;28;20485;-70
2021/12/23 04:19:43;;;;;;;25.00;14.85;;;-0.50;99.90;;;;;;5034788;28;20500;-71
2021/12/23 04:22:09;;;;;;;23.80;14.57;;;-0.50;99.90;;;;;;5035802;28;20052;-70
2021/12/23 04:24:35;;;;;;;25.75;14.40;;;-0.40;99.90;;;;;;5053004;28;20045;-70
2021/12/23 04:27:00;;;;;;;24.52;14.50;;;-0.40;99.90;;;;;;5017086;28;20485;-70
2021/12/23 04:29:26;;;;;;;25.10;14.50;;;-0.40;99.90;;;;;;5036112;28;20064;-70
2021/12/23 04:31:51;;;;;;;24.33;14.27;;;-0.40;99.90;;;;;;5034355;28;20551;-68
2021/12/23 04:34:17;;;;;;;23.90;15.18;;;-0.40;99.90;;;;;;5034989;28;20405;-71
2021/12/23 04:36:43;;;;;;;25.48;14.90;;;-0.40;99.90;;;;;;5034378;28;20129;-70
2021/12/23 04:39:08;;;;;;;21.58;14.15;;;-0.40;99.90;;;;;;5035344;28;20057;-68
2021/12/23 04:41:34;;;;;;;20.38;13.80;;;-0.30;99.90;;;;;;5018700;28;20053;-70
2021/12/23 04:43:59;;;;;;;23.38;12.93;;;-0.30;99.90;;;;;;5053356;28;20045;-71
2021/12/23 04:46:25;;;;;;;24.50;14.45;;;-0.30;99.90;;;;;;5034165;28;20053;-70
2021/12/23 04:48:51;;;;;;;20.27;13.65;;;-0.30;99.90;;;;;;5035129;28;20107;-69
2021/12/23 04:51:18;;;;;;;22.38;14.68;;;-0.30;99.90;;;;;;5034913;28;20045;-70
2021/12/23 04:53:44;;;;;;;23.88;14.85;;;-0.30;99.90;;;;;;5018518;28;20057;-69
2021/12/23 04:56:11;;;;;;;21.48;14.10;;;-0.30;99.90;;;;;;5026301;28;20052;-70
2021/12/23 04:58:36;;;;;;;23.35;14.75;;;-0.30;99.90;;;;;;5034190;28;20061;-68
2021/12/23 05:01:03;;;;;;;23.55;14.40;;;-0.30;99.90;;;;;;5034796;28;20045;-70
2021/12/23 05:03:29;;;;;;;25.15;15.20;;;-0.30;99.90;;;;;;5034964;28;20124;-70
2021/12/23 05:05:54;;;;;;;20.77;13.80;;;-0.30;99.90;;;;;;5034814;28;20186;-70
2021/12/23 05:08:21;;;;;;;21.98;13.57;;;-0.30;99.90;;;;;;5052221;28;20053;-69
2021/12/23 05:10:47;;;;;;;21.52;14.63;;;-0.30;99.90;;;;;;5034920;28;20084;-68
2021/12/23 05:13:13;;;;;;;22.60;14.75;;;-0.30;99.90;;;;;;5033883;28;20049;-69
2021/12/23 05:15:39;;;;;;;20.33;13.73;;;-0.30;99.90;;;;;;5031245;28;20108;-70
2021/12/23 05:18:06;;;;;;;23.67;15.45;;;-0.30;99.90;;;;;;5028664;28;20406;-69
2021/12/23 05:20:32;;;;;;;26.58;14.90;;;-0.30;99.90;;;;;;5012771;28;20049;-69
2021/12/23 05:22:58;;;;;;;26.52;15.27;;;-0.30;99.90;;;;;;5030905;28;20067;-70
2021/12/23 05:25:23;;;;;;;22.08;14.85;;;-0.30;99.90;;;;;;5034990;28;20110;-69
2021/12/23 05:27:54;;;;;;;22.20;14.15;;;-0.30;99.90;;;;;;5017992;28;20044;-69
2021/12/23 05:30:20;;;;;;;20.83;14.13;;;-0.30;99.90;;;;;;5050806;28;20473;-69
2021/12/23 05:32:46;;;;;;;21.52;14.68;;;-0.30;99.90;;;;;;5034020;28;20102;-69
2021/12/23 05:35:14;;;;;;;21.30;14.32;;;-0.30;99.90;;;;;;5031616;28;20481;-69
2021/12/23 05:37:40;;;;;;;21.15;13.90;;;-0.30;99.90;;;;;;5023399;28;20135;-69
2021/12/23 05:40:08;;;;;;;23.85;15.15;;;-0.30;99.90;;;;;;5006230;28;20066;-70
2021/12/23 05:42:33;;;;;;;23.10;15.10;;;-0.30;99.90;;;;;;5014026;28;20052;-71
2021/12/23 05:44:59;;;;;;;21.40;14.70;;;-0.30;99.90;;;;;;5014976;28;20045;-69
2021/12/23 05:47:24;;;;;;;23.50;15.55;;;-0.30;99.90;;;;;;5002875;28;20458;-68
2021/12/23 05:49:50;;;;;;;22.55;14.63;;;-0.30;99.90;;;;;;5030127;28;20055;-69
2021/12/23 05:52:16;;;;;;;24.40;14.95;;;-0.30;99.90;;;;;;5011169;28;20054;-68
2021/12/23 05:54:41;;;;;;;23.08;15.13;;;-0.30;99.90;;;;;;5014586;28;20068;-69
2021/12/23 05:57:08;;;;;;;26.75;15.57;;;-0.30;99.90;;;;;;5015301;28;20057;-69
2021/12/23 05:59:35;;;;;;;26.60;16.05;;;-0.20;99.90;;;;;;5014153;28;20104;-71
2021/12/23 06:02:04;;;;;;;26.85;15.43;;;-0.30;99.90;;;;;;5013195;28;20563;-68
2021/12/23 06:04:31;;;;;;;27.38;15.73;;;-0.30;99.90;;;;;;4997615;28;20056;-71
2021/12/23 06:06:56;;;;;;;23.17;15.30;;;-0.30;99.90;;;;;;5013915;28;20046;-71
2021/12/23 06:09:22;;;;;;;24.33;15.65;;;-0.30;99.90;;;;;;5030913;28;21039;-70
2021/12/23 06:11:47;;;;;;;23.67;15.75;;;-0.20;99.90;;;;;;4998721;28;20541;-69
2021/12/23 06:14:13;;;;;;;26.05;15.65;;;-0.30;99.90;;;;;;5018297;28;20050;-69
2021/12/23 06:16:39;;;;;;;22.55;14.38;;;-0.20;99.90;;;;;;5017291;28;20059;-70
2021/12/23 06:19:05;;;;;;;26.60;15.02;;;-0.20;99.90;;;;;;5018361;28;20069;-68
2021/12/23 06:21:32;;;;;;;28.23;15.10;;;-0.20;99.90;;;;;;5017982;28;20485;-70
2021/12/23 06:23:58;;;;;;;24.73;16.30;;;-0.20;99.90;;;;;;5017448;28;20053;-68
2021/12/23 06:26:24;;;;;;;26.25;16.17;;;-0.20;99.90;;;;;;5017686;28;20161;-68
2021/12/23 06:28:49;;;;;;;23.30;14.93;;;-0.20;99.90;;;;;;5035874;28;20183;-69
2021/12/23 06:31:15;;;;;;;26.48;15.50;;;-0.20;99.90;;;;;;5035451;28;20378;-70
2021/12/23 06:33:41;;;;;;;23.95;15.18;;;0.00;99.90;;;;;;5017664;28;20049;-69
2021/12/23 06:36:08;;;;;;;29.55;17.67;;;-0.20;99.90;;;;;;5017350;28;20092;-69
2021/12/23 06:38:35;;;;;;;28.52;15.90;;;-0.20;99.90;;;;;;5020619;28;20053;-69
2021/12/23 06:41:01;;;;;;;32.53;19.77;;;-0.10;99.90;;;;;;5037742;28;20128;-70
2021/12/23 06:43:27;;;;;;;28.02;17.88;;;-0.10;99.90;;;;;;5053653;28;20199;-68
2021/12/23 06:45:52;;;;;;;34.35;21.27;;;-0.10;99.90;;;;;;5037592;28;20187;-69
2021/12/23 06:48:18;;;;;;;32.75;19.35;;;-0.10;99.90;;;;;;5037428;28;20036;-68
2021/12/23 06:50:45;;;;;;;31.92;18.63;;;-0.10;99.90;;;;;;5037471;28;20374;-70
2021/12/23 06:53:13;;;;;;;34.45;19.65;;;-0.10;99.90;;;;;;5036555;28;20053;-69
2021/12/23 06:55:40;;;;;;;27.08;16.58;;;-0.10;99.90;;;;;;5035047;28;20049;-69
2021/12/23 06:58:06;;;;;;;31.77;19.85;;;-0.10;99.90;;;;;;5044659;28;20060;-67
2021/12/23 07:00:31;;;;;;;30.85;19.40;;;-0.10;99.90;;;;;;5052034;28;20056;-68
2021/12/23 07:02:58;;;;;;;31.08;19.20;;;-0.10;99.90;;;;;;5035556;28;20059;-67
2021/12/23 07:05:24;;;;;;;31.58;19.17;;;-0.10;99.90;;;;;;5033957;28;20496;-70
2021/12/23 07:07:56;;;;;;;26.17;17.38;;;-0.10;99.90;;;;;;5035304;28;20045;-69
2021/12/23 07:10:27;;;;;;;29.15;19.02;;;-0.10;99.90;;;;;;5054201;28;20074;-69
2021/12/23 07:12:54;;;;;;;26.15;16.83;;;-0.10;99.90;;;;;;5054625;28;20060;-69
2021/12/23 07:15:20;;;;;;;24.10;16.10;;;-0.10;99.90;;;;;;5036386;28;20091;-69
2021/12/23 07:17:46;;;;;;;28.63;17.05;;;-0.10;99.90;;;;;;5050654;28;20081;-69
2021/12/23 07:20:11;;;;;;;29.08;17.92;;;-0.10;99.90;;;;;;5037264;28;20044;-69
2021/12/23 07:22:37;;;;;;;26.20;17.50;;;-0.10;99.90;;;;;;5036286;28;20060;-69
2021/12/23 07:25:04;;;;;;;26.83;17.92;;;-0.10;99.90;;;;;;5033997;28;20451;-69
2021/12/23 07:27:30;;;;;;;25.98;16.67;;;-0.10;99.90;;;;;;5035795;28;20080;-69
2021/12/23 07:29:56;;;;;;;27.35;17.05;;;-0.10;99.90;;;;;;5053706;28;20072;-68
2021/12/23 07:32:21;;;;;;;25.10;16.90;;;-0.10;99.90;;;;;;5032430;28;20501;-67
2021/12/23 07:34:47;;;;;;;27.95;17.65;;;-0.10;99.90;;;;;;5033615;28;20057;-67
2021/12/23 07:37:13;;;;;;;27.70;18.05;;;-0.10;99.90;;;;;;5036663;28;20413;-69
2021/12/23 07:39:39;;;;;;;26.48;17.42;;;-0.10;99.90;;;;;;5032617;28;20057;-68
2021/12/23 07:42:06;;;;;;;31.88;19.55;;;-0.10;99.90;;;;;;5048283;28;20041;-68
2021/12/23 07:44:35;;;;;;;29.05;18.48;;;-0.10;99.90;;;;;;5035143;28;20060;-68
2021/12/23 07:47:02;;;;;;;31.25;18.33;;;-0.10;99.90;;;;;;5053314;28;20064;-71
2021/12/23 07:49:28;;;;;;;33.67;18.45;;;-0.10;99.90;;;;;;5019617;28;20053;-69
2021/12/23 07:51:55;;;;;;;31.58;18.83;;;0.00;99.90;;;;;;5019632;28;20049;-70
2021/12/23 07:54:21;;;;;;;30.02;19.65;;;0.00;99.90;;;;;;5021537;28;20056;-70
2021/12/23 07:56:47;;;;;;;31.88;18.08;;;-0.10;99.90;;;;;;5016297;28;20046;-68
2021/12/23 07:59:13;;;;;;;31.10;18.75;;;0.00;99.90;;;;;;5032212;28;20049;-67
2021/12/23 08:01:39;;;;;;;29.38;19.13;;;0.00;99.90;;;;;;5035733;28;20106;-69
2021/12/23 08:04:04;;;;;;;32.72;18.05;;;0.00;99.90;;;;;;5035915;28;20492;-68
2021/12/23 08:06:30;;;;;;;33.03;19.88;;;0.00;99.90;;;;;;5021575;28;20570;-68
2021/12/23 08:08:55;;;;;;;33.50;19.45;;;0.00;99.90;;;;;;5016560;28;20148;-69
2021/12/23 08:11:21;;;;;;;31.25;19.23;;;0.00;99.90;;;;;;5018100;28;20045;-70
2021/12/23 08:13:47;;;;;;;26.95;18.17;;;0.00;99.90;;;;;;5033278;28;20104;-70
2021/12/23 08:16:12;;;;;;;29.40;18.27;;;0.00;99.90;;;;;;5033639;28;20056;-70
2021/12/23 08:18:38;;;;;;;34.05;20.75;;;0.00;99.90;;;;;;5038400;28;20056;-71
2021/12/23 08:21:04;;;;;;;28.75;19.48;;;0.00;99.90;;;;;;5047921;28;20060;-70
2021/12/23 08:23:29;;;;;;;27.73;18.05;;;0.00;99.90;;;;;;5053032;28;20131;-69
2021/12/23 08:25:56;;;;;;;31.73;18.85;;;0.00;99.90;;;;;;5039176;28;20397;-69
2021/12/23 08:28:21;;;;;;;32.22;19.67;;;0.00;99.90;;;;;;5024793;28;20134;-70
2021/12/23 08:30:47;;;;;;;35.35;19.98;;;0.00;99.90;;;;;;5035241;28;20107;-69
2021/12/23 08:33:14;;;;;;;36.95;19.20;;;0.00;99.90;;;;;;5035553;28;20041;-69
2021/12/23 08:35:40;;;;;;;35.63;20.67;;;0.00;99.90;;;;;;5018806;28;20052;-68
2021/12/23 08:38:06;;;;;;;33.08;20.13;;;0.00;99.90;;;;;;5035316;28;20060;-69
2021/12/23 08:40:32;;;;;;;33.67;21.60;;;0.00;99.90;;;;;;5035405;28;20053;-70
2021/12/23 08:42:58;;;;;;;32.53;20.48;;;0.00;99.90;;;;;;5027917;28;20540;-70
2021/12/23 08:45:26;;;;;;;34.80;20.23;;;0.00;99.90;;;;;;5032008;28;20049;-68
2021/12/23 08:47:54;;;;;;;32.47;20.48;;;0.10;99.90;;;;;;5034952;28;20118;-69
2021/12/23 08:50:21;;;;;;;32.90;20.20;;;0.10;99.90;;;;;;5035318;28;20067;-69
2021/12/23 08:52:47;;;;;;;31.90;20.60;;;0.10;99.90;;;;;;5035287;28;20088;-68
2021/12/23 08:55:14;;;;;;;34.33;21.25;;;0.00;99.90;;;;;;5035016;28;20120;-70
2021/12/23 08:57:40;;;;;;;34.08;20.38;;;0.10;99.90;;;;;;5052394;28;20110;-69
2021/12/23 09:00:10;;;;;;;35.70;20.75;;;0.10;99.90;;;;;;5035581;28;20045;-70
2021/12/23 09:02:36;;;;;;;37.47;22.27;;;0.10;99.90;;;;;;5017419;28;20052;-69
2021/12/23 09:05:03;;;;;;;45.55;24.85;;;0.10;99.90;;;;;;5035134;28;20057;-68
2021/12/23 09:07:28;;;;;;;39.13;23.95;;;0.10;99.90;;;;;;5034992;28;20107;-70
2021/12/23 09:09:55;;;;;;;39.08;23.95;;;0.20;99.90;;;;;;5034801;28;20536;-70
2021/12/23 09:12:21;;;;;;;37.63;23.15;;;0.10;99.90;;;;;;5033782;28;20041;-68
2021/12/23 09:14:48;;;;;;;35.78;21.90;;;0.20;99.90;;;;;;5030589;28;20184;-70
2021/12/23 09:17:14;;;;;;;41.75;24.13;;;0.20;99.90;;;;;;5033208;28;20049;-71
2021/12/23 09:19:40;;;;;;;39.20;22.58;;;0.20;99.90;;;;;;5044364;28;20104;-68
2021/12/23 09:22:06;;;;;;;39.90;22.92;;;0.20;99.90;;;;;;5031822;28;20396;-69
2021/12/23 09:24:32;;;;;;;39.55;22.75;;;0.20;99.90;;;;;;5018408;28;20057;-68
2021/12/23 09:27:14;;;;;;;39.30;23.73;;;0.20;99.90;;;;;;5018007;28;20053;-69
2021/12/23 09:34:55;;;;;;;46.08;25.23;;;0.20;99.90;;;;;;5020558;28;20469;-69
2021/12/23 09:37:22;;;;;;;42.65;23.88;;;0.30;99.90;;;;;;5034476;28;20045;-70
2021/12/23 09:39:57;;;;;;;43.78;24.00;;;0.30;99.90;;;;;;5052615;28;20438;-70
2021/12/23 09:42:25;;;;;;;48.58;26.27;;;0.20;99.90;;;;;;5034858;28;20056;-69
2021/12/23 09:44:57;;;;;;;47.47;25.85;;;0.30;99.90;;;;;;5017897;28;20049;-70
2021/12/23 09:47:25;;;;;;;47.38;26.73;;;0.40;99.90;;;;;;5036338;28;20485;-69
2021/12/23 09:49:51;;;;;;;44.17;25.23;;;0.30;99.90;;;;;;5055579;28;20436;-66
2021/12/23 09:52:17;;;;;;;43.03;24.42;;;0.30;99.90;;;;;;5039593;28;20057;-70
2021/12/23 09:54:43;;;;;;;48.35;24.45;;;0.40;99.90;;;;;;5046831;28;20056;-69
2021/12/23 09:57:09;;;;;;;44.63;25.85;;;0.40;99.90;;;;;;5055404;28;20049;-69
2021/12/23 09:59:35;;;;;;;46.42;25.10;;;0.40;99.90;;;;;;5033407;28;20052;-69
2021/12/23 10:02:00;;;;;;;48.13;27.55;;;0.30;99.90;;;;;;5054508;28;20457;-70
2021/12/23 10:04:26;;;;;;;47.63;25.42;;;0.40;99.90;;;;;;5027656;28;20548;-70
2021/12/23 10:06:54;;;;;;;43.85;25.75;;;0.40;99.90;;;;;;5018301;28;20394;-69
2021/12/23 10:09:40;;;;;;;46.83;25.27;;;0.40;99.90;;;;;;5018322;28;20054;-68
2021/12/23 10:31:09;;;;;;;42.38;24.80;;;0.60;99.90;;;;;;5023995;28;20056;-68
2021/12/23 10:38:47;;;;;;;46.67;25.45;;;0.60;99.90;;;;;;5018555;28;20208;-67
2021/12/23 10:41:14;;;;;;;50.13;27.08;;;0.60;99.90;;;;;;5038184;28;20056;-68
2021/12/23 10:43:46;;;;;;;45.15;26.05;;;0.60;99.90;;;;;;5037937;28;20063;-69
2021/12/23 10:46:25;;;;;;;50.05;26.83;;;0.60;99.90;;;;;;5037827;28;20345;-67
2021/12/23 10:52:09;;;;;;;51.20;25.42;;;0.60;99.90;;;;;;5025279;28;20046;-67
2021/12/23 11:00:37;;;;;;;56.00;29.35;;;0.60;99.90;;;;;;5055072;28;20061;-67
2021/12/23 11:06:08;;;;;;;58.00;29.70;;;0.50;99.90;;;;;;5036082;28;20049;-67
2021/12/23 11:36:31;;;;;;;56.47;28.85;;;0.60;99.90;;;;;;5051245;28;20084;-68
2021/12/23 11:39:07;;;;;;;54.85;27.35;;;0.70;99.90;;;;;;5033465;28;20445;-65
2021/12/23 11:41:37;;;;;;;56.55;28.02;;;0.80;99.90;;;;;;5036326;28;20468;-69
2021/12/23 11:44:06;;;;;;;54.63;28.75;;;0.80;99.90;;;;;;5050529;28;20102;-67
2021/12/23 11:47:07;;;;;;;57.78;28.23;;;0.70;99.90;;;;;;5035127;28;20061;-68
2021/12/23 11:49:26;;;;;;;53.10;27.52;;;0.70;99.90;;;;;;5035169;28;20049;-68
2021/12/23 11:51:54;;;;;;;55.80;28.50;;;0.70;99.90;;;;;;5051788;28;20056;-69
2021/12/23 11:54:24;;;;;;;51.78;28.15;;;0.70;99.90;;;;;;5008434;28;20061;-68
2021/12/23 11:57:03;;;;;;;64.00;35.03;;;0.70;99.90;;;;;;5016828;28;20049;-68
2021/12/23 11:59:33;;;;;;;56.42;29.50;;;0.70;99.90;;;;;;5035808;28;20097;-66
2021/12/23 12:02:00;;;;;;;57.22;27.83;;;0.70;99.90;;;;;;5035479;28;20049;-69
2021/12/23 12:04:32;;;;;;;52.53;28.95;;;0.70;99.90;;;;;;5036620;28;20115;-66
2021/12/23 12:06:59;;;;;;;54.92;28.35;;;0.80;99.90;;;;;;5053924;28;20057;-69
2021/12/23 12:09:32;;;;;;;58.60;30.65;;;0.80;99.90;;;;;;5035003;28;20045;-67
2021/12/23 12:12:11;;;;;;;54.47;29.23;;;0.80;99.90;;;;;;5034184;28;20115;-67
2021/12/23 12:14:39;;;;;;;53.58;28.85;;;0.80;99.90;;;;;;5033210;28;20397;-68
2021/12/23 12:17:23;;;;;;;52.50;28.05;;;0.80;99.90;;;;;;5034915;28;20060;-67
2021/12/23 12:19:57;;;;;;;55.72;27.52;;;0.80;99.90;;;;;;5053664;28;20060;-67
2021/12/23 12:22:58;;;;;;;51.15;27.45;;;0.80;99.90;;;;;;5053039;28;20058;-69
2021/12/23 12:25:24;;;;;;;53.05;28.05;;;0.80;99.90;;;;;;5005618;28;20053;-67
2021/12/23 12:27:55;;;;;;;54.75;29.88;;;0.80;99.90;;;;;;5047504;28;20111;-67
2021/12/23 12:30:39;;;;;;;53.53;27.70;;;0.80;99.90;;;;;;5016509;28;20380;-68
2021/12/23 12:33:29;;;;;;;53.35;27.88;;;0.90;99.90;;;;;;5034854;28;20434;-70
2021/12/23 12:35:58;;;;;;;50.40;26.05;;;0.90;99.90;;;;;;5030675;28;20060;-68
2021/12/23 12:38:26;;;;;;;53.78;27.10;;;0.80;99.90;;;;;;5037733;28;20061;-68
2021/12/23 12:41:03;;;;;;;51.90;26.95;;;0.90;99.90;;;;;;5055079;28;20087;-70
2021/12/23 12:43:48;;;;;;;62.70;31.30;;;0.90;99.90;;;;;;5031954;28;20057;-68
2021/12/23 12:46:38;;;;;;;57.55;28.60;;;0.90;99.90;;;;;;5051894;28;20408;-66
2021/12/23 12:49:15;;;;;;;60.65;30.55;;;1.00;99.90;;;;;;5049251;28;20059;-67
2021/12/23 12:51:44;;;;;;;52.28;28.75;;;1.00;99.90;;;;;;5051251;28;20044;-67
2021/12/23 12:54:15;;;;;;;47.35;26.45;;;1.00;99.90;;;;;;5040855;28;20057;-68
2021/12/23 12:56:48;;;;;;;52.70;27.27;;;1.00;99.90;;;;;;5034057;28;20051;-68
2021/12/23 12:59:15;;;;;;;51.05;27.35;;;1.00;99.90;;;;;;5029488;28;20053;-66
2021/12/23 13:01:43;;;;;;;55.22;28.00;;;1.00;99.90;;;;;;5015172;28;20049;-67
2021/12/23 13:04:31;;;;;;;49.13;25.88;;;0.90;99.90;;;;;;5018768;28;20115;-67
2021/12/23 13:06:59;;;;;;;52.65;28.58;;;1.00;99.90;;;;;;5032060;28;20053;-67
2021/12/23 13:09:30;;;;;;;49.25;27.10;;;1.00;99.90;;;;;;5035153;28;20088;-69
2021/12/23 13:11:59;;;;;;;53.90;27.70;;;1.10;99.90;;;;;;5022872;28;20056;-66
2021/12/23 13:15:15;;;;;;;53.88;28.00;;;1.10;99.90;;;;;;5038775;28;20049;-68
2021/12/23 13:17:51;;;;;;;49.75;26.85;;;1.00;99.90;;;;;;5013918;28;20052;-69
2021/12/23 13:20:17;;;;;;;51.08;27.48;;;1.00;99.90;;;;;;5034730;28;20118;-69
2021/12/23 13:22:45;;;;;;;49.47;26.23;;;1.00;99.90;;;;;;5030024;28;20114;-68
2021/12/23 13:25:11;;;;;;;45.65;26.02;;;1.00;99.90;;;;;;5014205;28;20128;-69
2021/12/23 13:27:40;;;;;;;54.25;27.27;;;1.00;99.90;;;;;;5052856;28;20053;-68
2021/12/23 13:30:09;;;;;;;52.83;26.58;;;1.00;99.90;;;;;;5049118;28;20082;-69
2021/12/23 13:32:35;;;;;;;47.83;26.23;;;1.00;99.90;;;;;;5034399;28;20098;-68
2021/12/23 13:35:10;;;;;;;51.38;26.98;;;1.00;99.90;;;;;;5033460;28;20409;-69
2021/12/23 13:37:41;;;;;;;48.50;25.63;;;1.00;99.90;;;;;;5008059;28;21715;-69
2021/12/23 13:40:07;;;;;;;52.00;26.80;;;1.00;99.90;;;;;;4997037;28;20046;-69
2021/12/23 13:42:38;;;;;;;52.13;27.77;;;1.00;99.90;;;;;;4999889;28;20153;-69
2021/12/23 13:45:04;;;;;;;47.95;26.38;;;1.00;99.90;;;;;;5009905;28;20132;-69
2021/12/23 13:47:33;;;;;;;58.70;29.33;;;1.00;99.90;;;;;;5032263;28;20053;-68
2021/12/23 13:49:59;;;;;;;50.47;26.95;;;1.00;99.90;;;;;;5013056;28;20056;-69